Time;durP1;ratioP1;P1;durP2;ratioP2;P2;SDS_P1;SDS_P2;PMS_P1;PMS_P2;Temp;Humidity;BMP_temperature;BMP_pressure;BME280_temperature;BME280_humidity;BME280_pressure;Samples;Min_cycle;Max_cycle;Signal;HPM_P1;HPM_P2
2022/03/02 00:01:04;;;;;;;17.98;11.98;;;;;12.80;102532.00;;;;5029428;28;20204;-79
2022/03/02 00:03:33;;;;;;;17.85;11.60;;;;;12.80;102533.00;;;;5048224;28;20295;-79
2022/03/02 00:06:00;;;;;;;15.80;11.38;;;;;12.80;102531.00;;;;5048336;28;20200;-79
2022/03/02 00:08:27;;;;;;;18.38;11.70;;;;;12.80;102526.00;;;;5048574;28;20257;-79
2022/03/02 00:10:55;;;;;;;18.25;11.73;;;;;12.80;102530.00;;;;5047794;28;20195;-79
2022/03/02 00:13:22;;;;;;;18.35;12.52;;;;;12.80;102521.00;;;;5048786;28;20207;-79
2022/03/02 00:15:49;;;;;;;23.25;11.65;;;;;12.80;102521.00;;;;5048390;28;20238;-79
2022/03/02 00:18:16;;;;;;;16.83;10.82;;;;;12.80;102524.00;;;;5047923;28;20697;-79
2022/03/02 00:20:45;;;;;;;17.02;11.68;;;;;12.80;102516.00;;;;5047950;28;20203;-79
2022/03/02 00:23:12;;;;;;;18.88;12.38;;;;;12.80;102521.00;;;;5047952;28;20188;-79
2022/03/02 00:25:39;;;;;;;16.50;11.38;;;;;12.80;102520.00;;;;5048143;28;20289;-79
2022/03/02 00:28:07;;;;;;;18.45;12.18;;;;;12.80;102527.00;;;;5047988;28;20558;-79
2022/03/02 00:30:34;;;;;;;16.30;11.23;;;;;12.80;102526.00;;;;5048193;28;20215;-79
2022/03/02 00:33:02;;;;;;;19.27;12.65;;;;;12.80;102530.00;;;;5048146;28;20210;-79
2022/03/02 00:35:29;;;;;;;18.73;11.68;;;;;12.80;102524.00;;;;5047599;28;20231;-79
2022/03/02 00:37:58;;;;;;;18.20;12.52;;;;;12.80;102518.00;;;;5048110;28;20579;-79
2022/03/02 00:40:25;;;;;;;18.02;11.20;;;;;12.80;102525.00;;;;5048271;28;20207;-79
2022/03/02 00:42:53;;;;;;;16.60;10.95;;;;;12.80;102525.00;;;;5050913;28;20245;-79
2022/03/02 00:45:20;;;;;;;15.57;11.18;;;;;12.80;102515.00;;;;5051398;28;20206;-79
2022/03/02 00:47:48;;;;;;;16.80;11.93;;;;;12.80;102507.00;;;;5051956;28;20588;-80
2022/03/02 00:50:16;;;;;;;15.43;10.45;;;;;12.70;102511.00;;;;5051919;28;20504;-79
2022/03/02 00:52:44;;;;;;;14.60;10.45;;;;;12.80;102514.00;;;;5052041;28;20200;-79
2022/03/02 00:55:13;;;;;;;16.58;11.35;;;;;12.70;102502.00;;;;5051664;28;20227;-79
2022/03/02 00:57:40;;;;;;;17.40;12.25;;;;;12.80;102502.00;;;;5051331;28;20208;-78
2022/03/02 01:00:09;;;;;;;17.70;11.55;;;;;12.80;102508.00;;;;5059264;28;20195;-77
2022/03/02 01:02:37;;;;;;;17.27;10.95;;;;;12.80;102504.00;;;;5041775;28;20213;-77
2022/03/02 01:05:05;;;;;;;16.55;11.35;;;;;12.80;102503.00;;;;5031425;28;20283;-78
2022/03/02 01:07:33;;;;;;;15.02;10.32;;;;;12.80;102496.00;;;;5031584;28;20207;-78
2022/03/02 01:10:01;;;;;;;17.25;12.00;;;;;12.80;102493.00;;;;5031906;28;20204;-79
2022/03/02 01:12:30;;;;;;;16.10;10.65;;;;;12.80;102487.00;;;;5045071;28;20207;-78
2022/03/02 01:14:57;;;;;;;16.15;10.43;;;;;12.80;102494.00;;;;5050842;28;20231;-78
2022/03/02 01:17:24;;;;;;;15.75;9.90;;;;;12.80;102486.00;;;;5051221;28;20195;-78
2022/03/02 01:19:52;;;;;;;15.60;10.38;;;;;12.80;102486.00;;;;5051661;28;20198;-78
2022/03/02 01:22:19;;;;;;;16.05;10.85;;;;;12.80;102488.00;;;;5050894;28;20204;-78
2022/03/02 01:24:46;;;;;;;14.43;9.65;;;;;12.80;102484.00;;;;5051448;28;20218;-78
2022/03/02 01:27:14;;;;;;;16.63;10.88;;;;;12.80;102477.00;;;;5051121;28;20202;-78
2022/03/02 01:29:43;;;;;;;17.05;11.32;;;;;12.80;102479.00;;;;5050768;28;20204;-78
2022/03/02 01:32:11;;;;;;;15.98;10.65;;;;;12.80;102485.00;;;;5050964;28;20195;-78
2022/03/02 01:34:38;;;;;;;16.60;10.88;;;;;12.70;102479.00;;;;5051038;28;20227;-78
2022/03/02 01:37:06;;;;;;;18.63;11.80;;;;;12.70;102486.00;;;;5051025;28;20210;-78
2022/03/02 01:39:33;;;;;;;17.38;10.65;;;;;12.70;102485.00;;;;5050640;28;20206;-78
2022/03/02 01:42:00;;;;;;;18.17;12.15;;;;;12.70;102479.00;;;;5051794;28;20196;-78
2022/03/02 01:44:28;;;;;;;16.00;10.65;;;;;12.70;102480.00;;;;5051095;28;20540;-78
2022/03/02 01:46:56;;;;;;;15.95;11.13;;;;;12.60;102476.00;;;;5050756;28;20625;-78
2022/03/02 01:49:24;;;;;;;15.98;10.43;;;;;12.60;102471.00;;;;5050514;28;20199;-78
2022/03/02 01:51:51;;;;;;;17.25;11.38;;;;;12.60;102465.00;;;;5051189;28;20207;-78
2022/03/02 01:54:18;;;;;;;16.13;11.27;;;;;12.60;102465.00;;;;5049980;28;20199;-78
2022/03/02 01:56:46;;;;;;;19.75;11.98;;;;;12.60;102466.00;;;;5051054;28;20611;-78
2022/03/02 01:59:13;;;;;;;15.07;10.50;;;;;12.50;102463.00;;;;5050591;28;20192;-78
2022/03/02 02:01:40;;;;;;;17.80;12.32;;;;;12.50;102462.00;;;;5050066;28;20199;-78
2022/03/02 02:04:09;;;;;;;17.02;11.75;;;;;12.50;102456.00;;;;5050129;28;20212;-78
2022/03/02 02:06:37;;;;;;;15.80;10.50;;;;;12.50;102464.00;;;;5062100;28;20206;-78
2022/03/02 02:09:08;;;;;;;16.83;11.23;;;;;12.50;102458.00;;;;5051277;28;20204;-78
2022/03/02 02:11:35;;;;;;;15.18;10.63;;;;;12.50;102461.00;;;;5050313;28;20572;-78
2022/03/02 02:14:02;;;;;;;17.63;11.93;;;;;12.40;102459.00;;;;5049684;28;20600;-78
2022/03/02 02:16:30;;;;;;;15.05;10.50;;;;;12.40;102455.00;;;;5050804;28;20231;-78
2022/03/02 02:18:57;;;;;;;16.27;11.00;;;;;12.40;102452.00;;;;5049629;28;20254;-79
2022/03/02 02:21:26;;;;;;;15.50;11.55;;;;;12.40;102442.00;;;;5049817;28;20211;-79
2022/03/02 02:23:53;;;;;;;17.58;12.32;;;;;12.40;102441.00;;;;5049605;28;20192;-79
2022/03/02 02:26:21;;;;;;;19.35;11.55;;;;;12.40;102435.00;;;;5049972;28;20203;-79
2022/03/02 02:28:49;;;;;;;16.35;10.98;;;;;12.40;102436.00;;;;5050160;28;20207;-80
2022/03/02 02:31:17;;;;;;;18.17;11.68;;;;;12.40;102431.00;;;;5049828;28;20215;-78
2022/03/02 02:33:44;;;;;;;15.60;10.82;;;;;12.40;102425.00;;;;5049256;28;20666;-77
2022/03/02 02:36:12;;;;;;;15.23;10.25;;;;;12.30;102420.00;;;;5049620;28;20297;-77
2022/03/02 02:38:41;;;;;;;15.13;10.57;;;;;12.30;102419.00;;;;5049845;28;20207;-78
2022/03/02 02:41:08;;;;;;;17.15;11.25;;;;;12.30;102420.00;;;;5050193;28;20203;-78
2022/03/02 02:43:37;;;;;;;17.17;11.05;;;;;12.30;102423.00;;;;5049913;28;20200;-78
2022/03/02 02:46:04;;;;;;;15.90;10.63;;;;;12.30;102421.00;;;;5049252;28;20682;-78
2022/03/02 02:48:32;;;;;;;15.90;10.50;;;;;12.30;102422.00;;;;5049645;28;20215;-78
2022/03/02 02:50:59;;;;;;;18.38;11.98;;;;;12.30;102424.00;;;;5049539;28;20721;-78
2022/03/02 02:53:26;;;;;;;17.30;10.77;;;;;12.30;102420.00;;;;5050027;28;20208;-77
2022/03/02 02:55:56;;;;;;;15.70;11.00;;;;;12.30;102415.00;;;;5049153;28;20246;-78
2022/03/02 02:58:23;;;;;;;16.80;11.23;;;;;12.30;102414.00;;;;5049574;28;20196;-79
2022/03/02 03:00:50;;;;;;;13.43;9.60;;;;;12.30;102415.00;;;;5049812;28;20211;-79
2022/03/02 03:03:19;;;;;;;16.58;10.57;;;;;12.30;102416.00;;;;5031484;28;20200;-78
2022/03/02 03:05:47;;;;;;;18.63;10.13;;;;;12.30;102415.00;;;;5028474;28;20211;-78
2022/03/02 03:08:15;;;;;;;17.40;11.40;;;;;12.30;102406.00;;;;5029409;28;20204;-79
2022/03/02 03:10:45;;;;;;;16.95;11.30;;;;;12.30;102413.00;;;;5037166;28;20222;-79
2022/03/02 03:13:14;;;;;;;14.63;10.85;;;;;12.30;102410.00;;;;5049015;28;20202;-78
2022/03/02 03:15:41;;;;;;;16.50;11.15;;;;;12.30;102411.00;;;;5052359;28;20219;-79
2022/03/02 03:18:09;;;;;;;16.25;11.43;;;;;12.30;102402.00;;;;5057115;28;20223;-79
2022/03/02 03:20:36;;;;;;;16.65;11.43;;;;;12.30;102403.00;;;;5049703;28;20199;-78
2022/03/02 03:23:07;;;;;;;18.52;11.80;;;;;12.30;102404.00;;;;5048760;28;20211;-79
2022/03/02 03:25:34;;;;;;;15.90;10.63;;;;;12.30;102404.00;;;;5049649;28;20260;-78
2022/03/02 03:28:02;;;;;;;15.52;10.75;;;;;12.30;102400.00;;;;5048454;28;20677;-78
2022/03/02 03:30:31;;;;;;;16.83;11.77;;;;;12.20;102395.00;;;;5048972;28;20253;-78
2022/03/02 03:32:58;;;;;;;18.73;11.52;;;;;12.20;102396.00;;;;5048431;28;20207;-78
2022/03/02 03:35:27;;;;;;;17.00;11.38;;;;;12.20;102383.00;;;;5048556;28;20664;-79
2022/03/02 03:37:55;;;;;;;14.95;10.50;;;;;12.20;102388.00;;;;5049044;28;20204;-79
2022/03/02 03:40:22;;;;;;;14.68;10.43;;;;;12.20;102388.00;;;;5049378;28;20203;-79
2022/03/02 03:42:51;;;;;;;15.40;11.02;;;;;12.20;102385.00;;;;5048439;28;20262;-78
2022/03/02 03:45:19;;;;;;;16.67;11.20;;;;;12.20;102388.00;;;;5048165;28;20195;-78
2022/03/02 03:47:48;;;;;;;15.38;10.40;;;;;12.20;102373.00;;;;5048607;28;20654;-78
2022/03/02 03:50:17;;;;;;;18.33;11.98;;;;;12.10;102381.00;;;;5047868;28;20538;-78
2022/03/02 03:52:44;;;;;;;18.27;11.50;;;;;12.10;102381.00;;;;5048366;28;20215;-78
2022/03/02 03:55:13;;;;;;;16.05;10.85;;;;;12.10;102376.00;;;;5048637;28;20226;-79
2022/03/02 03:57:41;;;;;;;14.15;10.07;;;;;12.10;102373.00;;;;5048795;28;20199;-79
2022/03/02 04:00:11;;;;;;;19.02;11.00;;;;;12.00;102367.00;;;;5048097;28;20286;-79
2022/03/02 04:02:38;;;;;;;14.95;10.18;;;;;12.00;102377.00;;;;5047667;28;20191;-79
2022/03/02 04:05:08;;;;;;;20.17;10.85;;;;;12.00;102369.00;;;;5048617;28;20300;-79
2022/03/02 04:07:36;;;;;;;15.65;10.65;;;;;12.00;102373.00;;;;5048908;28;20214;-79
2022/03/02 04:10:04;;;;;;;17.17;11.00;;;;;11.90;102376.00;;;;5048190;28;20203;-78
2022/03/02 04:12:31;;;;;;;15.43;10.57;;;;;11.90;102368.00;;;;5048500;28;20603;-79
2022/03/02 04:14:58;;;;;;;14.57;10.43;;;;;11.80;102366.00;;;;5047906;28;20215;-79
2022/03/02 04:17:25;;;;;;;15.73;10.63;;;;;11.80;102368.00;;;;5048257;28;20202;-78
2022/03/02 04:19:53;;;;;;;13.98;10.23;;;;;11.80;102366.00;;;;5048574;28;20211;-78
2022/03/02 04:22:21;;;;;;;17.80;11.02;;;;;11.80;102364.00;;;;5047532;28;20214;-78
2022/03/02 04:24:49;;;;;;;16.83;10.80;;;;;11.80;102355.00;;;;5047903;28;20192;-78
2022/03/02 04:27:16;;;;;;;16.20;10.60;;;;;11.80;102358.00;;;;5052166;28;20207;-79
2022/03/02 04:29:44;;;;;;;16.42;11.38;;;;;11.70;102359.00;;;;5064168;28;20202;-78
2022/03/02 04:32:11;;;;;;;17.17;11.15;;;;;11.70;102355.00;;;;5067817;28;20233;-78
2022/03/02 04:34:38;;;;;;;15.40;10.32;;;;;11.70;102350.00;;;;5068034;28;20202;-78
2022/03/02 04:37:06;;;;;;;16.98;10.80;;;;;11.70;102352.00;;;;5047676;28;20235;-78
2022/03/02 04:39:35;;;;;;;17.40;10.20;;;;;11.70;102348.00;;;;5048247;28;20238;-78
2022/03/02 04:42:02;;;;;;;17.00;10.27;;;;;11.70;102350.00;;;;5046603;28;20211;-78
2022/03/02 04:44:30;;;;;;;14.63;10.30;;;;;11.70;102345.00;;;;5047297;28;20196;-78
2022/03/02 04:46:57;;;;;;;15.13;11.27;;;;;11.70;102345.00;;;;5047660;28;20222;-78
2022/03/02 04:49:24;;;;;;;16.17;10.35;;;;;11.70;102346.00;;;;5048468;28;20192;-78
2022/03/02 04:51:51;;;;;;;17.45;10.57;;;;;11.70;102338.00;;;;5047858;28;20220;-78
2022/03/02 04:57:07;;;;;;;18.92;11.50;;;;;11.60;102330.00;;;;5047637;28;20261;-78
2022/03/02 04:59:34;;;;;;;14.65;10.80;;;;;11.70;102340.00;;;;5046774;28;20253;-78
2022/03/02 05:02:02;;;;;;;18.23;11.73;;;;;11.70;102336.00;;;;5042369;28;20204;-78
2022/03/02 05:04:29;;;;;;;16.48;11.65;;;;;11.70;102332.00;;;;5027839;28;20201;-78
2022/03/02 05:06:56;;;;;;;16.15;10.52;;;;;11.60;102329.00;;;;5027709;28;20660;-78
2022/03/02 05:09:24;;;;;;;17.23;11.00;;;;;11.70;102326.00;;;;5033632;28;20254;-78
2022/03/02 05:11:51;;;;;;;17.63;10.18;;;;;11.70;102332.00;;;;5047538;28;20208;-78
2022/03/02 05:14:20;;;;;;;15.45;11.13;;;;;11.60;102329.00;;;;5047053;28;20761;-78
2022/03/02 05:16:47;;;;;;;16.70;10.43;;;;;11.70;102324.00;;;;5047716;28;20231;-78
2022/03/02 05:19:14;;;;;;;16.95;11.40;;;;;11.60;102328.00;;;;5047665;28;20231;-78
2022/03/02 05:21:41;;;;;;;17.73;11.02;;;;;11.60;102328.00;;;;5046727;28;20200;-79
2022/03/02 05:24:08;;;;;;;18.17;11.50;;;;;11.60;102327.00;;;;5047281;28;20573;-78
2022/03/02 05:26:36;;;;;;;14.68;10.05;;;;;11.60;102328.00;;;;5047265;28;20546;-78
2022/03/02 05:29:03;;;;;;;21.23;10.80;;;;;11.60;102325.00;;;;5050329;28;20222;-78
2022/03/02 05:31:32;;;;;;;14.02;10.23;;;;;11.60;102332.00;;;;5051138;28;20207;-77
2022/03/02 05:33:59;;;;;;;17.13;10.77;;;;;11.60;102332.00;;;;5062934;28;20206;-77
2022/03/02 05:36:27;;;;;;;14.60;10.40;;;;;11.50;102321.00;;;;5050977;28;20227;-78
2022/03/02 05:38:55;;;;;;;18.52;11.30;;;;;11.50;102321.00;;;;5051171;28;20258;-78
2022/03/02 05:41:22;;;;;;;14.02;10.45;;;;;11.50;102322.00;;;;5051140;28;20211;-77
2022/03/02 05:43:52;;;;;;;14.65;10.30;;;;;11.50;102332.00;;;;5050821;28;20207;-77
2022/03/02 05:46:19;;;;;;;16.40;10.10;;;;;11.50;102321.00;;;;5050312;28;20613;-78
2022/03/02 05:48:49;;;;;;;16.20;10.80;;;;;11.40;102311.00;;;;5051485;28;20214;-78
2022/03/02 05:51:17;;;;;;;15.45;10.73;;;;;11.40;102315.00;;;;5051030;28;20224;-78
2022/03/02 05:53:44;;;;;;;16.02;10.43;;;;;11.40;102318.00;;;;5050074;28;20506;-77
2022/03/02 05:56:13;;;;;;;16.08;10.95;;;;;11.40;102320.00;;;;5050870;28;20227;-78
2022/03/02 05:58:40;;;;;;;17.63;11.82;;;;;11.30;102329.00;;;;5051518;28;20191;-78
2022/03/02 06:01:07;;;;;;;18.77;10.93;;;;;11.30;102327.00;;;;5050475;28;20203;-79
2022/03/02 06:03:35;;;;;;;16.52;10.70;;;;;11.30;102322.00;;;;5049642;28;20235;-78
2022/03/02 06:06:05;;;;;;;16.23;10.65;;;;;11.20;102315.00;;;;5050991;28;20204;-78
2022/03/02 06:08:32;;;;;;;18.20;11.10;;;;;11.20;102321.00;;;;5050503;28;20191;-79
2022/03/02 06:11:00;;;;;;;19.02;11.60;;;;;11.20;102322.00;;;;5050861;28;20214;-79
2022/03/02 06:13:27;;;;;;;16.58;10.68;;;;;11.20;102322.00;;;;5050572;28;20199;-78
2022/03/02 06:15:55;;;;;;;14.73;10.18;;;;;11.10;102318.00;;;;5051141;28;20219;-79
2022/03/02 06:18:22;;;;;;;13.98;10.02;;;;;11.10;102323.00;;;;5050093;28;20265;-78
2022/03/02 06:20:52;;;;;;;17.83;10.20;;;;;11.10;102330.00;;;;5050468;28;20685;-79
2022/03/02 06:23:22;;;;;;;14.77;10.07;;;;;11.00;102329.00;;;;5050155;28;20218;-79
2022/03/02 06:25:49;;;;;;;14.45;10.00;;;;;11.10;102333.00;;;;5049366;28;20776;-79
2022/03/02 06:28:17;;;;;;;16.63;10.85;;;;;11.00;102332.00;;;;5049997;28;20691;-78
2022/03/02 06:30:44;;;;;;;14.98;10.25;;;;;11.00;102336.00;;;;5050463;28;20207;-78
2022/03/02 06:33:16;;;;;;;17.08;11.18;;;;;11.00;102342.00;;;;5048687;28;20258;-78
2022/03/02 06:35:43;;;;;;;16.90;10.18;;;;;11.00;102341.00;;;;5049715;28;20223;-78
2022/03/02 06:38:10;;;;;;;16.70;11.02;;;;;11.00;102339.00;;;;5048972;28;20203;-78
2022/03/02 06:40:39;;;;;;;16.10;10.77;;;;;10.90;102341.00;;;;5050423;28;20211;-79
2022/03/02 06:43:10;;;;;;;15.13;10.43;;;;;10.90;102335.00;;;;5048028;28;20195;-78
2022/03/02 06:45:50;;;;;;;14.27;10.25;;;;;10.90;102335.00;;;;5061225;28;20200;-78
2022/03/02 06:48:21;;;;;;;18.15;10.73;;;;;10.90;102343.00;;;;5048792;28;20203;-78
2022/03/02 06:50:52;;;;;;;14.60;9.75;;;;;10.90;102345.00;;;;5049419;28;20209;-79
2022/03/02 06:53:29;;;;;;;15.65;11.07;;;;;10.90;102341.00;;;;5029172;28;20296;-78
2022/03/02 06:56:01;;;;;;;14.93;10.45;;;;;10.80;102349.00;;;;5028672;28;20192;-78
2022/03/02 06:58:35;;;;;;;14.48;10.00;;;;;10.90;102347.00;;;;5028975;28;20207;-79
2022/03/02 07:01:03;;;;;;;13.70;9.40;;;;;10.90;102342.00;;;;5028556;28;20297;-79
2022/03/02 07:03:41;;;;;;;15.25;10.18;;;;;10.80;102350.00;;;;5029306;28;20212;-78
2022/03/02 07:06:08;;;;;;;18.25;9.85;;;;;10.90;102347.00;;;;5028917;28;20215;-78
2022/03/02 07:08:37;;;;;;;19.98;10.75;;;;;10.90;102341.00;;;;5036489;28;20210;-79
2022/03/02 07:11:06;;;;;;;17.30;10.38;;;;;10.90;102341.00;;;;5048460;28;20230;-78
2022/03/02 07:13:35;;;;;;;14.88;9.82;;;;;10.90;102343.00;;;;5048126;28;20207;-78
2022/03/02 07:16:02;;;;;;;15.93;10.55;;;;;10.90;102337.00;;;;5048224;28;20210;-78
2022/03/02 07:18:29;;;;;;;14.50;9.68;;;;;10.90;102341.00;;;;5048576;28;20231;-79
2022/03/02 07:20:58;;;;;;;16.73;9.98;;;;;10.90;102337.00;;;;5048693;28;20199;-79
2022/03/02 07:23:29;;;;;;;13.80;9.38;;;;;11.00;102335.00;;;;5047946;28;20199;-79
2022/03/02 07:26:00;;;;;;;13.65;9.70;;;;;11.00;102335.00;;;;5047588;28;20674;-79
2022/03/02 07:28:28;;;;;;;15.07;9.55;;;;;11.00;102346.00;;;;5048186;28;20199;-79
2022/03/02 07:30:57;;;;;;;16.75;10.23;;;;;11.10;102345.00;;;;5048943;28;20211;-79
2022/03/02 07:33:25;;;;;;;13.80;9.77;;;;;11.10;102348.00;;;;5047483;28;20286;-79
2022/03/02 07:35:57;;;;;;;16.33;10.10;;;;;11.10;102347.00;;;;5048012;28;20290;-79
2022/03/02 07:38:26;;;;;;;16.75;9.73;;;;;11.20;102354.00;;;;5048422;28;20207;-79
2022/03/02 07:40:54;;;;;;;13.98;9.27;;;;;11.20;102353.00;;;;5045881;28;20216;-79
2022/03/02 07:43:22;;;;;;;16.52;9.57;;;;;11.20;102359.00;;;;5040425;28;20207;-79
2022/03/02 07:45:51;;;;;;;14.60;9.80;;;;;11.30;102358.00;;;;5028296;28;20205;-79
2022/03/02 07:48:18;;;;;;;13.38;9.50;;;;;11.40;102354.00;;;;5028097;28;20208;-79
2022/03/02 07:50:49;;;;;;;14.48;9.15;;;;;11.40;102356.00;;;;5056444;28;20222;-79
2022/03/02 07:53:20;;;;;;;13.43;9.50;;;;;11.40;102357.00;;;;5048671;28;20210;-79
2022/03/02 07:55:48;;;;;;;13.77;8.98;;;;;11.50;102351.00;;;;5048560;28;20293;-79
2022/03/02 07:58:18;;;;;;;17.33;9.55;;;;;11.60;102356.00;;;;5048032;28;20343;-79
2022/03/02 08:00:49;;;;;;;14.20;9.50;;;;;11.60;102356.00;;;;5048002;28;20314;-79
2022/03/02 08:03:19;;;;;;;16.63;9.50;;;;;11.70;102356.00;;;;5047308;28;20298;-79
2022/03/02 08:05:46;;;;;;;14.65;10.23;;;;;11.70;102351.00;;;;5048279;28;20202;-79
2022/03/02 08:08:15;;;;;;;13.85;9.60;;;;;11.80;102357.00;;;;5047633;28;20639;-79
2022/03/02 08:10:43;;;;;;;16.92;9.80;;;;;11.80;102352.00;;;;5047183;28;20600;-78
2022/03/02 08:13:12;;;;;;;14.70;9.70;;;;;11.90;102345.00;;;;5048147;28;20207;-78
2022/03/02 08:15:41;;;;;;;16.73;10.68;;;;;11.90;102348.00;;;;5048470;28;20211;-78
2022/03/02 08:18:10;;;;;;;16.98;10.50;;;;;12.00;102350.00;;;;5047433;28;20235;-78
2022/03/02 08:20:46;;;;;;;14.90;9.52;;;;;12.00;102348.00;;;;5048116;28;20200;-79
2022/03/02 08:23:13;;;;;;;13.27;9.10;;;;;12.10;102350.00;;;;5048248;28;20198;-79
2022/03/02 08:25:41;;;;;;;13.88;9.65;;;;;12.20;102350.00;;;;5047700;28;20196;-79
2022/03/02 08:28:10;;;;;;;14.63;9.50;;;;;12.20;102348.00;;;;5047831;28;20196;-79
2022/03/02 08:30:38;;;;;;;14.43;10.55;;;;;12.30;102350.00;;;;5047883;28;20199;-79
2022/03/02 08:33:07;;;;;;;14.90;9.73;;;;;12.40;102354.00;;;;5047900;28;20218;-79
2022/03/02 08:35:40;;;;;;;16.15;10.15;;;;;12.40;102350.00;;;;5047610;28;20237;-79
2022/03/02 08:38:07;;;;;;;14.57;10.60;;;;;12.50;102347.00;;;;5047599;28;20322;-79
2022/03/02 08:40:35;;;;;;;14.25;9.65;;;;;12.60;102343.00;;;;5048522;28;20207;-79
2022/03/02 08:43:02;;;;;;;15.38;9.43;;;;;12.70;102345.00;;;;5048194;28;20273;-79
2022/03/02 08:45:30;;;;;;;13.45;8.90;;;;;12.70;102342.00;;;;5047508;28;20207;-79
2022/03/02 08:48:00;;;;;;;13.68;9.15;;;;;12.80;102346.00;;;;5047765;28;20195;-79
2022/03/02 08:50:27;;;;;;;15.02;10.02;;;;;12.90;102345.00;;;;5048188;28;20285;-79
2022/03/02 08:52:57;;;;;;;15.43;9.98;;;;;13.00;102340.00;;;;5048317;28;20693;-78
2022/03/02 08:55:29;;;;;;;17.13;10.77;;;;;13.00;102336.00;;;;5048453;28;20631;-79
2022/03/02 08:57:58;;;;;;;13.35;9.35;;;;;13.10;102333.00;;;;5046899;28;20697;-78
2022/03/02 09:00:25;;;;;;;14.25;9.68;;;;;13.20;102341.00;;;;5058207;28;20628;-79
2022/03/02 09:02:55;;;;;;;15.30;9.77;;;;;13.20;102345.00;;;;5041402;28;20208;-79
2022/03/02 09:05:27;;;;;;;15.77;10.48;;;;;13.30;102332.00;;;;5031834;28;20287;-79
2022/03/02 09:07:56;;;;;;;18.30;10.73;;;;;13.30;102332.00;;;;5041168;28;20636;-79
2022/03/02 09:10:23;;;;;;;16.00;10.70;;;;;13.40;102331.00;;;;5051937;28;20286;-79
2022/03/02 09:12:51;;;;;;;28.27;11.70;;;;;13.50;102333.00;;;;5051362;28;20752;-79
2022/03/02 09:15:19;;;;;;;16.55;10.90;;;;;13.50;102331.00;;;;5050860;28;20203;-78
2022/03/02 09:17:46;;;;;;;15.98;11.80;;;;;13.60;102332.00;;;;5050927;28;20239;-79
2022/03/02 09:20:14;;;;;;;15.30;10.27;;;;;13.60;102327.00;;;;5051230;28;20211;-79
2022/03/02 09:22:42;;;;;;;14.38;10.38;;;;;13.70;102331.00;;;;5051527;28;20278;-79
2022/03/02 09:25:11;;;;;;;15.07;10.30;;;;;13.80;102326.00;;;;5050705;28;20287;-79
2022/03/02 09:27:39;;;;;;;18.05;10.40;;;;;13.80;102324.00;;;;5051358;28;20211;-78
2022/03/02 09:30:09;;;;;;;13.82;9.60;;;;;13.90;102318.00;;;;5051099;28;20207;-78
2022/03/02 09:32:41;;;;;;;15.00;9.70;;;;;14.00;102319.00;;;;5051315;28;20195;-78
2022/03/02 09:35:13;;;;;;;15.65;9.38;;;;;14.10;102316.00;;;;5051141;28;20191;-78
2022/03/02 09:37:44;;;;;;;15.02;9.13;;;;;14.10;102311.00;;;;5050694;28;20716;-78
2022/03/02 09:40:23;;;;;;;16.30;10.48;;;;;14.20;102308.00;;;;5050690;28;20245;-79
2022/03/02 09:42:57;;;;;;;14.75;10.30;;;;;14.30;102313.00;;;;5051158;28;20241;-79
2022/03/02 09:45:26;;;;;;;15.13;9.85;;;;;14.40;102307.00;;;;5050994;28;20211;-79
2022/03/02 09:47:57;;;;;;;16.20;9.88;;;;;14.40;102310.00;;;;5050874;28;20227;-79
2022/03/02 09:50:26;;;;;;;16.35;10.18;;;;;14.50;102313.00;;;;5050705;28;20289;-80
2022/03/02 09:52:55;;;;;;;16.48;10.48;;;;;14.60;102305.00;;;;5050519;28;20203;-79
2022/03/02 09:55:24;;;;;;;13.15;9.23;;;;;14.60;102303.00;;;;5051065;28;20294;-79
2022/03/02 09:57:56;;;;;;;14.02;9.55;;;;;14.70;102303.00;;;;5050599;28;20322;-79
2022/03/02 10:00:25;;;;;;;14.80;10.82;;;;;14.80;102303.00;;;;5050881;28;20199;-79
2022/03/02 10:02:55;;;;;;;15.93;10.70;;;;;14.90;102304.00;;;;5049759;28;20204;-79
2022/03/02 10:05:24;;;;;;;16.27;10.07;;;;;15.00;102302.00;;;;5054291;28;20223;-79
2022/03/02 10:07:57;;;;;;;16.25;10.10;;;;;15.00;102301.00;;;;5064172;28;20198;-80
2022/03/02 10:10:28;;;;;;;15.93;9.93;;;;;15.10;102297.00;;;;5070576;28;20673;-79
2022/03/02 10:12:58;;;;;;;13.88;9.95;;;;;15.20;102300.00;;;;5070978;28;20199;-80
2022/03/02 10:15:26;;;;;;;16.50;9.50;;;;;15.30;102294.00;;;;5063384;28;20823;-79
2022/03/02 10:17:57;;;;;;;14.88;9.82;;;;;15.40;102299.00;;;;5050177;28;20239;-80
2022/03/02 10:20:27;;;;;;;11.02;8.15;;;;;15.50;102290.00;;;;5050092;28;20231;-80
2022/03/02 10:23:35;;;;;;;12.20;8.27;;;;;15.50;102298.00;;;;5050346;28;20300;-80
2022/03/02 10:26:13;;;;;;;13.80;9.40;;;;;15.60;102291.00;;;;5050147;28;20227;-80
2022/03/02 10:28:46;;;;;;;12.80;8.68;;;;;15.70;102291.00;;;;5049705;28;20226;-80
2022/03/02 10:31:42;;;;;;;13.90;9.23;;;;;15.80;102291.00;;;;5050151;28;20202;-80
2022/03/02 10:34:29;;;;;;;10.55;7.72;;;;;15.90;102294.00;;;;5049899;28;20569;-80
2022/03/02 10:37:18;;;;;;;13.90;8.85;;;;;16.00;102295.00;;;;5050088;28;20218;-80
2022/03/02 10:39:56;;;;;;;10.82;6.97;;;;;16.10;102304.00;;;;5049838;28;20192;-80
2022/03/02 10:42:28;;;;;;;10.70;7.05;;;;;16.20;102295.00;;;;5049605;28;20195;-80
2022/03/02 10:45:05;;;;;;;12.50;7.55;;;;;16.20;102293.00;;;;5050150;28;20681;-80
2022/03/02 10:47:34;;;;;;;12.07;7.80;;;;;16.30;102288.00;;;;5050407;28;20203;-80
2022/03/02 10:50:04;;;;;;;9.98;6.47;;;;;16.40;102291.00;;;;5049323;28;20223;-80
2022/03/02 10:52:36;;;;;;;10.30;7.13;;;;;16.50;102295.00;;;;5049302;28;20196;-77
2022/03/02 10:55:06;;;;;;;10.73;8.02;;;;;16.50;102296.00;;;;5049835;28;20210;-77
2022/03/02 10:57:35;;;;;;;15.05;8.77;;;;;16.60;102284.00;;;;5049473;28;20227;-77
2022/03/02 11:00:09;;;;;;;11.57;7.97;;;;;16.70;102282.00;;;;5048812;28;20203;-78
2022/03/02 11:02:40;;;;;;;10.52;7.35;;;;;16.80;102280.00;;;;5043053;28;20204;-78
2022/03/02 11:05:11;;;;;;;13.00;9.40;;;;;16.80;102282.00;;;;5028946;28;20284;-77
2022/03/02 11:07:39;;;;;;;11.32;7.57;;;;;16.90;102276.00;;;;5044155;28;20196;-78
2022/03/02 11:10:10;;;;;;;9.70;7.15;;;;;17.00;102272.00;;;;5048793;28;20230;-79
2022/03/02 11:12:42;;;;;;;11.93;7.70;;;;;17.00;102275.00;;;;5048542;28;20662;-78
2022/03/02 11:15:11;;;;;;;10.38;6.72;;;;;17.10;102271.00;;;;5049876;28;20604;-79
2022/03/02 11:17:52;;;;;;;12.00;8.57;;;;;17.10;102273.00;;;;5058538;28;20601;-78
2022/03/02 11:20:19;;;;;;;11.45;7.72;;;;;17.30;102272.00;;;;5048460;28;20199;-79
2022/03/02 11:22:55;;;;;;;10.95;7.60;;;;;17.40;102273.00;;;;5048189;28;20227;-78
2022/03/02 11:25:43;;;;;;;10.82;7.32;;;;;17.40;102270.00;;;;5040994;28;20199;-79
2022/03/02 11:28:16;;;;;;;11.15;7.85;;;;;17.50;102270.00;;;;5047614;28;20195;-79
2022/03/02 11:30:48;;;;;;;13.45;8.32;;;;;17.50;102258.00;;;;5048479;28;20290;-78
2022/03/02 11:33:17;;;;;;;11.50;7.78;;;;;17.60;102258.00;;;;5048931;28;20700;-78
2022/03/02 11:35:45;;;;;;;11.55;8.15;;;;;17.60;102256.00;;;;5048932;28;20199;-78
2022/03/02 11:38:18;;;;;;;9.95;7.35;;;;;17.70;102258.00;;;;5048222;28;20227;-79
2022/03/02 11:40:48;;;;;;;10.55;7.20;;;;;17.70;102255.00;;;;5048777;28;20207;-79
2022/03/02 11:43:20;;;;;;;10.60;7.32;;;;;17.80;102247.00;;;;5048684;28;20245;-78
2022/03/02 11:45:47;;;;;;;8.70;6.10;;;;;17.90;102242.00;;;;5048037;28;20200;-80
2022/03/02 11:48:16;;;;;;;9.30;5.90;;;;;17.90;102240.00;;;;5048073;28;20677;-80
2022/03/02 11:51:07;;;;;;;9.80;5.80;;;;;17.90;102229.00;;;;5048260;28;20219;-80
2022/03/02 11:53:37;;;;;;;10.43;5.60;;;;;18.00;102233.00;;;;5049088;28;20596;-80
2022/03/02 11:56:06;;;;;;;8.20;5.72;;;;;18.10;102232.00;;;;5047894;28;20268;-80
2022/03/02 11:59:09;;;;;;;9.30;5.63;;;;;18.00;102221.00;;;;5048520;28;20246;-80
2022/03/02 12:01:43;;;;;;;8.40;5.63;;;;;18.10;102218.00;;;;5048488;28;20257;-80
2022/03/02 12:04:13;;;;;;;8.73;5.82;;;;;18.20;102221.00;;;;5047424;28;20199;-80
2022/03/02 12:06:44;;;;;;;10.35;5.78;;;;;18.30;102219.00;;;;5048457;28;20203;-80